Emre Kose — 9HA2786 — position and weather

sailwx.info

Track history (hours):
 
Tides and Currents Weather Stations Pressure Air Temp Water Temp Dewpoint Dewpoint Depression Visibility Wind Speed Wind Dir Waves Ship Positions

Emre Kose

Last reported at 2018-Jun-15 19:56 UTC. Time now 2018-Jun-19 20:19 UTC.
Position N 40°22' E 017°10'.

Length 109 m; draft 6 m.

Type: Cargo ship. MMSI: 215692000.

Date/timePositionNaut miles runAvg speedWind from/ knotsBaromVisibWave heightAir tempDewpointWater temp
2018-Jun-15 19:56N 40°22' E 017°10'3 7.3
2018-Jun-15 19:31N 40°25' E 017°10'4 8.3
2018-Jun-15 19:01N 40°29' E 017°13'0 0.0
2018-Jun-15 18:30N 40°29' E 017°13'0 0.0
2018-Jun-15 18:00N 40°29' E 017°13'0 0.0
2018-Jun-15 17:30N 40°29' E 017°13'0 0.0
2018-Jun-15 17:00N 40°29' E 017°13'0 0.0
2018-Jun-15 16:30N 40°29' E 017°13'0 0.0
2018-Jun-15 16:00N 40°29' E 017°13'0 0.0
2018-Jun-15 15:30N 40°29' E 017°13'0 0.0
2018-Jun-15 14:57N 40°29' E 017°13'0 0.0
2018-Jun-15 14:30N 40°29' E 017°13'0 0.0
2018-Jun-15 14:00N 40°29' E 017°13'0 0.0
2018-Jun-15 13:30N 40°29' E 017°13'0 0.0
2018-Jun-15 13:00N 40°29' E 017°13'0 0.0
2018-Jun-15 12:30N 40°29' E 017°13'0 0.0
2018-Jun-15 12:00N 40°29' E 017°13'0 0.0
2018-Jun-15 11:30N 40°29' E 017°13'0 0.0
2018-Jun-15 11:00N 40°29' E 017°13'0 0.0
2018-Jun-15 10:30N 40°29' E 017°13'0 0.0
2018-Jun-15 10:00N 40°29' E 017°13'0 0.0
2018-Jun-15 09:30N 40°29' E 017°13'0 0.0
2018-Jun-15 09:00N 40°29' E 017°13'0 0.0
2018-Jun-15 08:30N 40°29' E 017°13'0 0.0
2018-Jun-15 08:00N 40°29' E 017°13'0 0.0
2018-Jun-15 07:30N 40°29' E 017°13'0 0.0
2018-Jun-15 07:00N 40°29' E 017°13'0 0.0
2018-Jun-15 06:24N 40°29' E 017°13'0 0.0
2018-Jun-15 06:00N 40°29' E 017°13'0 0.0
2018-Jun-15 05:30N 40°29' E 017°13'0 0.0
2018-Jun-15 05:00N 40°29' E 017°13'0 0.0
2018-Jun-15 04:30N 40°29' E 017°13'0 0.0
2018-Jun-15 03:57N 40°29' E 017°13'0 0.0
2018-Jun-15 03:30N 40°29' E 017°13'0 0.0
2018-Jun-15 03:00N 40°29' E 017°13'0 0.0
2018-Jun-15 02:30N 40°29' E 017°13'0 0.0
2018-Jun-15 02:00N 40°29' E 017°13'0 0.0
2018-Jun-15 01:30N 40°29' E 017°13'0 0.0
2018-Jun-15 01:00N 40°29' E 017°13'0 0.0
2018-Jun-15 00:30N 40°29' E 017°13'0 0.0
2018-Jun-15 00:00N 40°29' E 017°13'0 0.0
2018-Jun-14 23:30N 40°29' E 017°13'0 0.0
2018-Jun-14 23:00N 40°29' E 017°13'0 0.0
2018-Jun-14 22:30N 40°29' E 017°13'0 0.0
2018-Jun-14 22:00N 40°29' E 017°13'0 0.0
2018-Jun-14 21:30N 40°29' E 017°13'0 0.0
2018-Jun-14 21:00N 40°29' E 017°13'0 0.0
2018-Jun-14 20:30N 40°29' E 017°13'0 0.0
2018-Jun-14 20:00N 40°29' E 017°13'0 0.0
2018-Jun-14 19:30N 40°29' E 017°13'0 0.0
2018-Jun-14 19:00N 40°29' E 017°13'0 0.0
2018-Jun-14 18:30N 40°29' E 017°13'0 0.0
2018-Jun-14 18:00N 40°29' E 017°13'0 0.0
2018-Jun-14 17:27N 40°29' E 017°13'0 0.0
2018-Jun-14 17:00N 40°29' E 017°13'0 0.0
2018-Jun-14 16:30N 40°29' E 017°13'0 0.0
2018-Jun-14 16:00N 40°29' E 017°13'0 0.0
2018-Jun-14 15:31N 40°29' E 017°13'2 4.5
2018-Jun-14 15:01N 40°27' E 017°12'3 5.2
2018-Jun-14 14:28N 40°25' E 017°09'1 1.3
2018-Jun-14 13:21N 40°24' E 017°08'0 0.3
2018-Jun-14 12:40N 40°24' E 017°08'0 0.4
2018-Jun-14 12:29N 40°24' E 017°08'0 0.9
2018-Jun-14 12:00N 40°24' E 017°07'163 8.2
2018-Jun-13 16:11N 37°50' E 015°57'2 9.5
2018-Jun-13 16:01N 37°50' E 015°54'6 9.5
2018-Jun-13 15:23N 37°50' E 015°47'4 9.2
2018-Jun-13 14:59N 37°51' E 015°42'10 8.9
2018-Jun-13 13:50N 37°58' E 015°33'411.1
2018-Jun-13 13:30N 38°02' E 015°33'611.9
2018-Jun-13 13:00N 38°08' E 015°35'611.6
2018-Jun-13 12:31N 38°13' E 015°36'5 9.3
2018-Jun-13 11:58N 38°17' E 015°40'4 9.3
2018-Jun-13 11:30N 38°19' E 015°36'510.7
2018-Jun-13 11:01N 38°20' E 015°29'510.5
2018-Jun-13 10:31N 38°20' E 015°22'510.4
2018-Jun-13 10:01N 38°20' E 015°16'510.1
2018-Jun-13 09:31N 38°19' E 015°09'6 9.8
2018-Jun-13 08:56N 38°19' E 015°02'4 9.9
2018-Jun-13 08:31N 38°19' E 014°57'43 9.8
2018-Jun-13 04:09N 38°17' E 014°02'1 9.6
2018-Jun-13 03:59N 38°17' E 014°01'5 9.5
2018-Jun-13 03:30N 38°17' E 013°55'5 9.4
2018-Jun-13 02:59N 38°18' E 013°48'4 9.4
2018-Jun-13 02:30N 38°18' E 013°43'5 9.3
2018-Jun-13 02:00N 38°18' E 013°37'5 9.3
2018-Jun-13 01:30N 38°18' E 013°31'5 9.4
2018-Jun-13 01:00N 38°18' E 013°25'5 9.6
2018-Jun-13 00:29N 38°18' E 013°19'5 9.7
2018-Jun-13 00:01N 38°17' E 013°13'5 9.8
2018-Jun-12 23:30N 38°17' E 013°06'5 9.5
2018-Jun-12 23:00N 38°17' E 013°00'5 9.1
2018-Jun-12 22:30N 38°17' E 012°54'  
2018-Jun-09 09:36N 35°57' W 005°12'111.2
2018-Jun-09 09:30N 35°57' W 005°14'5 9.6
2018-Jun-09 09:00N 35°54' W 005°18'1 1.2
2018-Jun-09 08:29N 35°54' W 005°18'0 0.0
2018-Jun-09 08:01N 35°54' W 005°18'0 0.0
2018-Jun-09 07:31N 35°54' W 005°18'0 0.0
2018-Jun-09 07:01N 35°54' W 005°18'0 0.0
2018-Jun-09 06:31N 35°54' W 005°18'0 0.0
2018-Jun-09 06:00N 35°54' W 005°18'0 0.0
2018-Jun-09 05:31N 35°54' W 005°18'0 0.0
2018-Jun-09 05:01N 35°54' W 005°18'0 0.0
2018-Jun-09 04:31N 35°54' W 005°18'0 0.0
2018-Jun-09 04:00N 35°54' W 005°18'0 0.0
2018-Jun-09 03:30N 35°54' W 005°18'0 0.0
2018-Jun-09 03:01N 35°54' W 005°18'0 0.0
2018-Jun-09 02:31N 35°54' W 005°18'0 0.0
2018-Jun-09 02:00N 35°54' W 005°18'0 0.0
2018-Jun-09 01:30N 35°54' W 005°18'1 1.5
2018-Jun-09 01:00N 35°54' W 005°18'0 0.5
2018-Jun-09 00:30N 35°55' W 005°19'0 0.3
2018-Jun-09 00:01N 35°55' W 005°19'3 5.6
2018-Jun-08 23:31N 35°57' W 005°21'265 9.0
2018-Jun-07 18:06N 38°20' W 010°00'110.0
2018-Jun-07 18:00N 38°21' W 010°01'510.2
2018-Jun-07 17:30N 38°26' W 010°02'510.1
2018-Jun-07 17:00N 38°31' W 010°03'510.3
2018-Jun-07 16:30N 38°36' W 010°04'610.4
2018-Jun-07 15:56N 38°42' W 010°06'410.2
2018-Jun-07 15:30N 38°46' W 010°06'610.1
2018-Jun-07 14:55N 38°53' W 010°06'4 9.8
2018-Jun-07 14:30N 38°56' W 010°06'510.0
2018-Jun-07 14:00N 39°02' W 010°06'5 9.7
2018-Jun-07 13:30N 39°06' W 010°06'510.4
2018-Jun-07 13:00N 39°12' W 010°06'  
Track history (hours):
 
Tides and Currents Weather Stations Pressure Air Temp Water Temp Dewpoint Dewpoint Depression Visibility Wind Speed Wind Dir Waves Ship Positions

Emre Kose

Last reported at 2018-Jun-15 19:56 UTC. Time now 2018-Jun-19 20:19 UTC.
Position N 40°22' E 017°10'.

Length 109 m; draft 6 m.

Type: Cargo ship. MMSI: 215692000.

Date/timePositionNaut miles runAvg speedWind from/ knotsBaromVisibWave heightAir tempDewpointWater temp
2018-Jun-15 19:56N 40°22' E 017°10'3 7.3
2018-Jun-15 19:31N 40°25' E 017°10'4 8.3
2018-Jun-15 19:01N 40°29' E 017°13'0 0.0
2018-Jun-15 18:30N 40°29' E 017°13'0 0.0
2018-Jun-15 18:00N 40°29' E 017°13'0 0.0
2018-Jun-15 17:30N 40°29' E 017°13'0 0.0
2018-Jun-15 17:00N 40°29' E 017°13'0 0.0
2018-Jun-15 16:30N 40°29' E 017°13'0 0.0
2018-Jun-15 16:00N 40°29' E 017°13'0 0.0
2018-Jun-15 15:30N 40°29' E 017°13'0 0.0
2018-Jun-15 14:57N 40°29' E 017°13'0 0.0
2018-Jun-15 14:30N 40°29' E 017°13'0 0.0
2018-Jun-15 14:00N 40°29' E 017°13'0 0.0
2018-Jun-15 13:30N 40°29' E 017°13'0 0.0
2018-Jun-15 13:00N 40°29' E 017°13'0 0.0
2018-Jun-15 12:30N 40°29' E 017°13'0 0.0
2018-Jun-15 12:00N 40°29' E 017°13'0 0.0
2018-Jun-15 11:30N 40°29' E 017°13'0 0.0
2018-Jun-15 11:00N 40°29' E 017°13'0 0.0
2018-Jun-15 10:30N 40°29' E 017°13'0 0.0
2018-Jun-15 10:00N 40°29' E 017°13'0 0.0
2018-Jun-15 09:30N 40°29' E 017°13'0 0.0
2018-Jun-15 09:00N 40°29' E 017°13'0 0.0
2018-Jun-15 08:30N 40°29' E 017°13'0 0.0
2018-Jun-15 08:00N 40°29' E 017°13'0 0.0
2018-Jun-15 07:30N 40°29' E 017°13'0 0.0
2018-Jun-15 07:00N 40°29' E 017°13'0 0.0
2018-Jun-15 06:24N 40°29' E 017°13'0 0.0
2018-Jun-15 06:00N 40°29' E 017°13'0 0.0
2018-Jun-15 05:30N 40°29' E 017°13'0 0.0
2018-Jun-15 05:00N 40°29' E 017°13'0 0.0
2018-Jun-15 04:30N 40°29' E 017°13'0 0.0
2018-Jun-15 03:57N 40°29' E 017°13'0 0.0
2018-Jun-15 03:30N 40°29' E 017°13'0 0.0
2018-Jun-15 03:00N 40°29' E 017°13'0 0.0
2018-Jun-15 02:30N 40°29' E 017°13'0 0.0
2018-Jun-15 02:00N 40°29' E 017°13'0 0.0
2018-Jun-15 01:30N 40°29' E 017°13'0 0.0
2018-Jun-15 01:00N 40°29' E 017°13'0 0.0
2018-Jun-15 00:30N 40°29' E 017°13'0 0.0
2018-Jun-15 00:00N 40°29' E 017°13'0 0.0
2018-Jun-14 23:30N 40°29' E 017°13'0 0.0
2018-Jun-14 23:00N 40°29' E 017°13'0 0.0
2018-Jun-14 22:30N 40°29' E 017°13'0 0.0
2018-Jun-14 22:00N 40°29' E 017°13'0 0.0
2018-Jun-14 21:30N 40°29' E 017°13'0 0.0
2018-Jun-14 21:00N 40°29' E 017°13'0 0.0
2018-Jun-14 20:30N 40°29' E 017°13'0 0.0
2018-Jun-14 20:00N 40°29' E 017°13'0 0.0
2018-Jun-14 19:30N 40°29' E 017°13'0 0.0
2018-Jun-14 19:00N 40°29' E 017°13'0 0.0
2018-Jun-14 18:30N 40°29' E 017°13'0 0.0
2018-Jun-14 18:00N 40°29' E 017°13'0 0.0
2018-Jun-14 17:27N 40°29' E 017°13'0 0.0
2018-Jun-14 17:00N 40°29' E 017°13'0 0.0
2018-Jun-14 16:30N 40°29' E 017°13'0 0.0
2018-Jun-14 16:00N 40°29' E 017°13'0 0.0
2018-Jun-14 15:31N 40°29' E 017°13'2 4.5
2018-Jun-14 15:01N 40°27' E 017°12'3 5.2
2018-Jun-14 14:28N 40°25' E 017°09'1 1.3
2018-Jun-14 13:21N 40°24' E 017°08'0 0.3
2018-Jun-14 12:40N 40°24' E 017°08'0 0.4
2018-Jun-14 12:29N 40°24' E 017°08'0 0.9
2018-Jun-14 12:00N 40°24' E 017°07'163 8.2
2018-Jun-13 16:11N 37°50' E 015°57'2 9.5
2018-Jun-13 16:01N 37°50' E 015°54'6 9.5
2018-Jun-13 15:23N 37°50' E 015°47'4 9.2
2018-Jun-13 14:59N 37°51' E 015°42'10 8.9
2018-Jun-13 13:50N 37°58' E 015°33'411.1
2018-Jun-13 13:30N 38°02' E 015°33'611.9
2018-Jun-13 13:00N 38°08' E 015°35'611.6
2018-Jun-13 12:31N 38°13' E 015°36'5 9.3
2018-Jun-13 11:58N 38°17' E 015°40'4 9.3
2018-Jun-13 11:30N 38°19' E 015°36'510.7
2018-Jun-13 11:01N 38°20' E 015°29'510.5
2018-Jun-13 10:31N 38°20' E 015°22'510.4
2018-Jun-13 10:01N 38°20' E 015°16'510.1
2018-Jun-13 09:31N 38°19' E 015°09'6 9.8
2018-Jun-13 08:56N 38°19' E 015°02'4 9.9
2018-Jun-13 08:31N 38°19' E 014°57'43 9.8
2018-Jun-13 04:09N 38°17' E 014°02'1 9.6
2018-Jun-13 03:59N 38°17' E 014°01'5 9.5
2018-Jun-13 03:30N 38°17' E 013°55'5 9.4
2018-Jun-13 02:59N 38°18' E 013°48'4 9.4
2018-Jun-13 02:30N 38°18' E 013°43'5 9.3
2018-Jun-13 02:00N 38°18' E 013°37'5 9.3
2018-Jun-13 01:30N 38°18' E 013°31'5 9.4
2018-Jun-13 01:00N 38°18' E 013°25'5 9.6
2018-Jun-13 00:29N 38°18' E 013°19'5 9.7
2018-Jun-13 00:01N 38°17' E 013°13'5 9.8
2018-Jun-12 23:30N 38°17' E 013°06'5 9.5
2018-Jun-12 23:00N 38°17' E 013°00'5 9.1
2018-Jun-12 22:30N 38°17' E 012°54'  
2018-Jun-09 09:36N 35°57' W 005°12'111.2
2018-Jun-09 09:30N 35°57' W 005°14'5 9.6
2018-Jun-09 09:00N 35°54' W 005°18'1 1.2
2018-Jun-09 08:29N 35°54' W 005°18'0 0.0
2018-Jun-09 08:01N 35°54' W 005°18'0 0.0
2018-Jun-09 07:31N 35°54' W 005°18'0 0.0
2018-Jun-09 07:01N 35°54' W 005°18'0 0.0
2018-Jun-09 06:31N 35°54' W 005°18'0 0.0
2018-Jun-09 06:00N 35°54' W 005°18'0 0.0
2018-Jun-09 05:31N 35°54' W 005°18'0 0.0
2018-Jun-09 05:01N 35°54' W 005°18'0 0.0
2018-Jun-09 04:31N 35°54' W 005°18'0 0.0
2018-Jun-09 04:00N 35°54' W 005°18'0 0.0
2018-Jun-09 03:30N 35°54' W 005°18'0 0.0
2018-Jun-09 03:01N 35°54' W 005°18'0 0.0
2018-Jun-09 02:31N 35°54' W 005°18'0 0.0
2018-Jun-09 02:00N 35°54' W 005°18'0 0.0
2018-Jun-09 01:30N 35°54' W 005°18'1 1.5
2018-Jun-09 01:00N 35°54' W 005°18'0 0.5
2018-Jun-09 00:30N 35°55' W 005°19'0 0.3
2018-Jun-09 00:01N 35°55' W 005°19'3 5.6
2018-Jun-08 23:31N 35°57' W 005°21'265 9.0
2018-Jun-07 18:06N 38°20' W 010°00'110.0
2018-Jun-07 18:00N 38°21' W 010°01'510.2
2018-Jun-07 17:30N 38°26' W 010°02'510.1
2018-Jun-07 17:00N 38°31' W 010°03'510.3
2018-Jun-07 16:30N 38°36' W 010°04'610.4
2018-Jun-07 15:56N 38°42' W 010°06'410.2
2018-Jun-07 15:30N 38°46' W 010°06'610.1
2018-Jun-07 14:55N 38°53' W 010°06'4 9.8
2018-Jun-07 14:30N 38°56' W 010°06'510.0
2018-Jun-07 14:00N 39°02' W 010°06'5 9.7
2018-Jun-07 13:30N 39°06' W 010°06'510.4
2018-Jun-07 13:00N 39°12' W 010°06'  

Dump ship's entire track history